sensor_id;sensor_type;location;lat;lon;timestamp;temperature;humidity
44695;DHT22;32845;59.422;17.930;2023-07-29T00:03:15;13.50;99.90
44695;DHT22;32845;59.422;17.930;2023-07-29T00:07:45;13.40;99.90
44695;DHT22;32845;59.422;17.930;2023-07-29T00:12:16;13.30;99.90
44695;DHT22;32845;59.422;17.930;2023-07-29T00:16:47;13.30;99.90
44695;DHT22;32845;59.422;17.930;2023-07-29T00:21:17;13.20;99.90
44695;DHT22;32845;59.422;17.930;2023-07-29T00:25:48;13.20;99.90
44695;DHT22;32845;59.422;17.930;2023-07-29T00:30:18;13.10;99.90
44695;DHT22;32845;59.422;17.930;2023-07-29T00:34:49;13.10;99.90
44695;DHT22;32845;59.422;17.930;2023-07-29T00:39:20;13.10;99.90
44695;DHT22;32845;59.422;17.930;2023-07-29T00:43:50;13.10;99.90
44695;DHT22;32845;59.422;17.930;2023-07-29T00:48:21;13.10;99.90
44695;DHT22;32845;59.422;17.930;2023-07-29T00:52:52;13.20;99.90
44695;DHT22;32845;59.422;17.930;2023-07-29T00:57:23;13.30;99.90
44695;DHT22;32845;59.422;17.930;2023-07-29T01:01:55;13.30;99.90
44695;DHT22;32845;59.422;17.930;2023-07-29T01:16:24;13.40;99.90
44695;DHT22;32845;59.422;17.930;2023-07-29T01:21:00;13.40;99.90
44695;DHT22;32845;59.422;17.930;2023-07-29T01:25:33;13.40;99.90
44695;DHT22;32845;59.422;17.930;2023-07-29T01:30:04;13.40;99.90
44695;DHT22;32845;59.422;17.930;2023-07-29T01:39:45;13.50;99.90
44695;DHT22;32845;59.422;17.930;2023-07-29T01:44:17;13.50;99.90
44695;DHT22;32845;59.422;17.930;2023-07-29T01:48:48;13.40;99.90
44695;DHT22;32845;59.422;17.930;2023-07-29T01:53:19;13.40;99.90
44695;DHT22;32845;59.422;17.930;2023-07-29T01:57:49;13.40;99.90
44695;DHT22;32845;59.422;17.930;2023-07-29T02:02:21;13.40;99.90
44695;DHT22;32845;59.422;17.930;2023-07-29T02:06:52;13.30;99.90
44695;DHT22;32845;59.422;17.930;2023-07-29T02:11:22;13.30;99.90
44695;DHT22;32845;59.422;17.930;2023-07-29T02:15:57;13.30;99.90
44695;DHT22;32845;59.422;17.930;2023-07-29T02:20:28;13.30;99.90
44695;DHT22;32845;59.422;17.930;2023-07-29T02:24:59;13.30;99.90
44695;DHT22;32845;59.422;17.930;2023-07-29T02:29:29;13.20;99.90
44695;DHT22;32845;59.422;17.930;2023-07-29T02:34:00;13.20;99.90
44695;DHT22;32845;59.422;17.930;2023-07-29T02:38:31;13.20;99.90
44695;DHT22;32845;59.422;17.930;2023-07-29T02:43:02;13.20;99.90
44695;DHT22;32845;59.422;17.930;2023-07-29T02:47:32;13.20;99.90
44695;DHT22;32845;59.422;17.930;2023-07-29T02:52:03;13.10;99.90
44695;DHT22;32845;59.422;17.930;2023-07-29T02:56:34;13.10;99.90
44695;DHT22;32845;59.422;17.930;2023-07-29T03:01:06;13.10;99.90
44695;DHT22;32845;59.422;17.930;2023-07-29T03:05:36;13.10;99.90
44695;DHT22;32845;59.422;17.930;2023-07-29T03:10:09;13.10;99.90
44695;DHT22;32845;59.422;17.930;2023-07-29T03:14:41;13.20;99.90
44695;DHT22;32845;59.422;17.930;2023-07-29T03:19:12;13.20;99.90
44695;DHT22;32845;59.422;17.930;2023-07-29T03:23:43;13.20;99.90
44695;DHT22;32845;59.422;17.930;2023-07-29T03:28:13;13.20;99.90
44695;DHT22;32845;59.422;17.930;2023-07-29T03:32:44;13.20;99.90
44695;DHT22;32845;59.422;17.930;2023-07-29T03:37:15;13.30;99.90
44695;DHT22;32845;59.422;17.930;2023-07-29T03:41:46;13.30;99.90
44695;DHT22;32845;59.422;17.930;2023-07-29T03:46:17;13.40;99.90
44695;DHT22;32845;59.422;17.930;2023-07-29T03:50:50;13.50;99.90
44695;DHT22;32845;59.422;17.930;2023-07-29T03:55:20;13.50;99.90
44695;DHT22;32845;59.422;17.930;2023-07-29T03:59:51;13.60;99.90
44695;DHT22;32845;59.422;17.930;2023-07-29T04:04:21;13.70;99.90
44695;DHT22;32845;59.422;17.930;2023-07-29T04:08:52;13.70;99.90
44695;DHT22;32845;59.422;17.930;2023-07-29T04:13:23;13.80;99.90
44695;DHT22;32845;59.422;17.930;2023-07-29T04:17:53;13.90;99.90
44695;DHT22;32845;59.422;17.930;2023-07-29T04:22:24;14.00;99.90
44695;DHT22;32845;59.422;17.930;2023-07-29T04:26:54;14.10;99.90
44695;DHT22;32845;59.422;17.930;2023-07-29T04:31:25;14.20;99.90
44695;DHT22;32845;59.422;17.930;2023-07-29T04:35:55;14.30;99.90
44695;DHT22;32845;59.422;17.930;2023-07-29T04:40:26;14.40;99.90
44695;DHT22;32845;59.422;17.930;2023-07-29T04:44:57;14.40;99.90
44695;DHT22;32845;59.422;17.930;2023-07-29T04:49:27;14.50;99.90
44695;DHT22;32845;59.422;17.930;2023-07-29T04:53:58;14.60;99.90
44695;DHT22;32845;59.422;17.930;2023-07-29T04:58:29;14.70;99.90
44695;DHT22;32845;59.422;17.930;2023-07-29T05:03:00;14.80;99.90
44695;DHT22;32845;59.422;17.930;2023-07-29T05:07:31;14.90;99.90
44695;DHT22;32845;59.422;17.930;2023-07-29T05:12:02;15.00;99.90
44695;DHT22;32845;59.422;17.930;2023-07-29T05:16:32;15.10;99.90
44695;DHT22;32845;59.422;17.930;2023-07-29T05:21:03;15.20;99.90
44695;DHT22;32845;59.422;17.930;2023-07-29T05:25:34;15.30;99.90
44695;DHT22;32845;59.422;17.930;2023-07-29T05:30:08;15.40;99.90
44695;DHT22;32845;59.422;17.930;2023-07-29T05:34:38;15.50;99.90
44695;DHT22;32845;59.422;17.930;2023-07-29T05:39:09;15.60;99.90
44695;DHT22;32845;59.422;17.930;2023-07-29T05:43:39;15.80;99.90
44695;DHT22;32845;59.422;17.930;2023-07-29T05:48:10;15.90;99.90
44695;DHT22;32845;59.422;17.930;2023-07-29T05:52:41;16.00;99.90
44695;DHT22;32845;59.422;17.930;2023-07-29T05:57:12;16.10;99.90
44695;DHT22;32845;59.422;17.930;2023-07-29T06:01:42;16.30;99.90
44695;DHT22;32845;59.422;17.930;2023-07-29T06:06:13;16.40;99.90
44695;DHT22;32845;59.422;17.930;2023-07-29T06:10:44;16.50;99.90
44695;DHT22;32845;59.422;17.930;2023-07-29T06:15:15;16.60;99.90
44695;DHT22;32845;59.422;17.930;2023-07-29T06:19:45;16.70;99.90
44695;DHT22;32845;59.422;17.930;2023-07-29T06:24:16;16.80;99.90
44695;DHT22;32845;59.422;17.930;2023-07-29T06:28:46;16.90;99.90
44695;DHT22;32845;59.422;17.930;2023-07-29T06:33:17;17.00;99.90
44695;DHT22;32845;59.422;17.930;2023-07-29T06:37:47;17.10;99.90
44695;DHT22;32845;59.422;17.930;2023-07-29T06:42:18;17.20;99.90
44695;DHT22;32845;59.422;17.930;2023-07-29T06:46:49;17.30;99.90
44695;DHT22;32845;59.422;17.930;2023-07-29T06:51:24;17.40;99.90
44695;DHT22;32845;59.422;17.930;2023-07-29T06:55:55;17.50;99.90
44695;DHT22;32845;59.422;17.930;2023-07-29T07:00:26;17.60;99.90
44695;DHT22;32845;59.422;17.930;2023-07-29T07:04:56;17.70;99.90
44695;DHT22;32845;59.422;17.930;2023-07-29T07:09:27;17.80;99.90
44695;DHT22;32845;59.422;17.930;2023-07-29T07:13:57;17.90;99.90
44695;DHT22;32845;59.422;17.930;2023-07-29T07:18:28;18.00;99.90
44695;DHT22;32845;59.422;17.930;2023-07-29T07:22:59;18.10;99.90
44695;DHT22;32845;59.422;17.930;2023-07-29T07:27:29;18.20;99.90
44695;DHT22;32845;59.422;17.930;2023-07-29T07:32:00;18.40;99.90
44695;DHT22;32845;59.422;17.930;2023-07-29T07:36:30;18.60;99.90
44695;DHT22;32845;59.422;17.930;2023-07-29T07:41:01;18.60;99.90
44695;DHT22;32845;59.422;17.930;2023-07-29T07:45:32;18.70;99.90
44695;DHT22;32845;59.422;17.930;2023-07-29T07:50:03;18.80;99.90
44695;DHT22;32845;59.422;17.930;2023-07-29T07:54:34;19.00;99.90
44695;DHT22;32845;59.422;17.930;2023-07-29T07:59:04;19.10;99.90
44695;DHT22;32845;59.422;17.930;2023-07-29T08:03:35;19.20;99.90
44695;DHT22;32845;59.422;17.930;2023-07-29T08:08:06;19.30;99.90
44695;DHT22;32845;59.422;17.930;2023-07-29T08:12:37;19.40;99.90
44695;DHT22;32845;59.422;17.930;2023-07-29T08:17:07;19.50;99.90
44695;DHT22;32845;59.422;17.930;2023-07-29T08:21:38;19.60;99.90
44695;DHT22;32845;59.422;17.930;2023-07-29T08:26:08;19.70;99.90
44695;DHT22;32845;59.422;17.930;2023-07-29T08:30:39;19.90;99.90
44695;DHT22;32845;59.422;17.930;2023-07-29T08:35:09;20.00;99.90
44695;DHT22;32845;59.422;17.930;2023-07-29T08:39:40;20.10;99.90
44695;DHT22;32845;59.422;17.930;2023-07-29T08:44:34;20.30;99.90
44695;DHT22;32845;59.422;17.930;2023-07-29T08:49:05;20.40;99.90
44695;DHT22;32845;59.422;17.930;2023-07-29T08:53:37;20.50;99.90
44695;DHT22;32845;59.422;17.930;2023-07-29T08:58:07;20.70;99.90
44695;DHT22;32845;59.422;17.930;2023-07-29T09:02:38;20.80;99.90
44695;DHT22;32845;59.422;17.930;2023-07-29T09:07:09;20.90;99.90
44695;DHT22;32845;59.422;17.930;2023-07-29T09:11:40;21.00;99.90
44695;DHT22;32845;59.422;17.930;2023-07-29T09:16:11;21.20;99.90
44695;DHT22;32845;59.422;17.930;2023-07-29T09:20:42;21.40;99.90
44695;DHT22;32845;59.422;17.930;2023-07-29T09:25:13;21.50;99.90
44695;DHT22;32845;59.422;17.930;2023-07-29T09:29:46;21.70;99.90
44695;DHT22;32845;59.422;17.930;2023-07-29T09:34:17;21.90;99.90
44695;DHT22;32845;59.422;17.930;2023-07-29T09:38:48;22.00;99.90
44695;DHT22;32845;59.422;17.930;2023-07-29T09:43:34;22.10;99.90
44695;DHT22;32845;59.422;17.930;2023-07-29T09:48:05;22.20;99.90
44695;DHT22;32845;59.422;17.930;2023-07-29T09:52:40;22.20;99.90
44695;DHT22;32845;59.422;17.930;2023-07-29T09:57:16;22.40;99.90
44695;DHT22;32845;59.422;17.930;2023-07-29T10:01:46;22.50;99.90
44695;DHT22;32845;59.422;17.930;2023-07-29T10:06:17;22.60;99.90
44695;DHT22;32845;59.422;17.930;2023-07-29T10:10:50;22.70;99.90
44695;DHT22;32845;59.422;17.930;2023-07-29T10:15:21;22.80;99.90
44695;DHT22;32845;59.422;17.930;2023-07-29T10:19:52;22.90;99.90
44695;DHT22;32845;59.422;17.930;2023-07-29T10:24:25;23.00;99.90
44695;DHT22;32845;59.422;17.930;2023-07-29T10:29:02;23.20;99.90
44695;DHT22;32845;59.422;17.930;2023-07-29T10:33:36;23.40;99.90
44695;DHT22;32845;59.422;17.930;2023-07-29T10:38:07;23.50;99.90
44695;DHT22;32845;59.422;17.930;2023-07-29T10:43:01;23.80;99.90
44695;DHT22;32845;59.422;17.930;2023-07-29T10:47:34;23.90;99.90
44695;DHT22;32845;59.422;17.930;2023-07-29T10:52:05;24.00;99.90
44695;DHT22;32845;59.422;17.930;2023-07-29T10:56:40;24.10;99.90
44695;DHT22;32845;59.422;17.930;2023-07-29T11:01:26;24.10;99.90
44695;DHT22;32845;59.422;17.930;2023-07-29T11:06:04;24.10;99.90
44695;DHT22;32845;59.422;17.930;2023-07-29T11:10:43;24.00;99.90
44695;DHT22;32845;59.422;17.930;2023-07-29T11:15:26;23.70;99.90
44695;DHT22;32845;59.422;17.930;2023-07-29T11:20:02;23.80;99.90
44695;DHT22;32845;59.422;17.930;2023-07-29T11:24:33;23.70;99.90
44695;DHT22;32845;59.422;17.930;2023-07-29T11:29:04;23.90;99.90
44695;DHT22;32845;59.422;17.930;2023-07-29T11:33:38;24.10;99.90
44695;DHT22;32845;59.422;17.930;2023-07-29T11:38:15;24.40;98.30
44695;DHT22;32845;59.422;17.930;2023-07-29T11:42:48;24.70;95.20
44695;DHT22;32845;59.422;17.930;2023-07-29T11:47:20;24.90;97.20
44695;DHT22;32845;59.422;17.930;2023-07-29T11:51:51;25.10;96.70
44695;DHT22;32845;59.422;17.930;2023-07-29T11:56:23;25.40;95.60
44695;DHT22;32845;59.422;17.930;2023-07-29T12:00:54;25.70;95.00
44695;DHT22;32845;59.422;17.930;2023-07-29T12:05:25;25.90;94.00
44695;DHT22;32845;59.422;17.930;2023-07-29T12:09:56;26.10;91.80
44695;DHT22;32845;59.422;17.930;2023-07-29T12:14:28;26.80;93.00
44695;DHT22;32845;59.422;17.930;2023-07-29T12:19:00;28.10;91.60
44695;DHT22;32845;59.422;17.930;2023-07-29T12:23:31;29.30;87.00
44695;DHT22;32845;59.422;17.930;2023-07-29T12:28:03;29.90;77.40
44695;DHT22;32845;59.422;17.930;2023-07-29T12:32:43;29.50;76.50
44695;DHT22;32845;59.422;17.930;2023-07-29T12:37:14;28.60;73.80
44695;DHT22;32845;59.422;17.930;2023-07-29T12:41:45;27.70;79.40
44695;DHT22;32845;59.422;17.930;2023-07-29T12:46:15;27.10;81.10
44695;DHT22;32845;59.422;17.930;2023-07-29T12:50:46;26.60;82.80
44695;DHT22;32845;59.422;17.930;2023-07-29T12:55:17;26.50;84.40
44695;DHT22;32845;59.422;17.930;2023-07-29T12:59:47;26.60;83.90
44695;DHT22;32845;59.422;17.930;2023-07-29T13:04:18;26.60;83.60
44695;DHT22;32845;59.422;17.930;2023-07-29T13:08:49;26.60;84.10
44695;DHT22;32845;59.422;17.930;2023-07-29T13:13:19;26.60;84.50
44695;DHT22;32845;59.422;17.930;2023-07-29T13:17:51;26.60;83.80
44695;DHT22;32845;59.422;17.930;2023-07-29T13:22:21;26.60;82.10
44695;DHT22;32845;59.422;17.930;2023-07-29T13:26:52;26.50;81.60
44695;DHT22;32845;59.422;17.930;2023-07-29T13:31:23;26.40;80.90
44695;DHT22;32845;59.422;17.930;2023-07-29T13:35:53;26.30;80.80
44695;DHT22;32845;59.422;17.930;2023-07-29T13:40:24;26.30;79.50
44695;DHT22;32845;59.422;17.930;2023-07-29T13:44:54;26.20;77.20
44695;DHT22;32845;59.422;17.930;2023-07-29T13:49:25;26.10;80.10
44695;DHT22;32845;59.422;17.930;2023-07-29T13:53:55;26.00;78.70
44695;DHT22;32845;59.422;17.930;2023-07-29T13:58:26;26.00;80.30
44695;DHT22;32845;59.422;17.930;2023-07-29T14:02:57;25.90;80.10
44695;DHT22;32845;59.422;17.930;2023-07-29T14:07:27;25.80;80.40
44695;DHT22;32845;59.422;17.930;2023-07-29T14:11:58;25.70;79.60
44695;DHT22;32845;59.422;17.930;2023-07-29T14:16:29;25.70;81.10
44695;DHT22;32845;59.422;17.930;2023-07-29T14:20:59;25.70;80.80
44695;DHT22;32845;59.422;17.930;2023-07-29T14:25:30;25.70;80.70
44695;DHT22;32845;59.422;17.930;2023-07-29T14:30:00;25.60;80.20
44695;DHT22;32845;59.422;17.930;2023-07-29T14:34:32;25.60;80.20
44695;DHT22;32845;59.422;17.930;2023-07-29T14:39:03;25.50;79.40
44695;DHT22;32845;59.422;17.930;2023-07-29T14:43:34;25.40;79.10
44695;DHT22;32845;59.422;17.930;2023-07-29T14:48:05;25.30;79.70
44695;DHT22;32845;59.422;17.930;2023-07-29T14:52:36;25.30;79.30
44695;DHT22;32845;59.422;17.930;2023-07-29T14:57:07;25.30;78.90
44695;DHT22;32845;59.422;17.930;2023-07-29T15:01:38;25.30;77.90
44695;DHT22;32845;59.422;17.930;2023-07-29T15:06:08;25.30;78.60
44695;DHT22;32845;59.422;17.930;2023-07-29T15:10:39;25.20;78.50
44695;DHT22;32845;59.422;17.930;2023-07-29T15:15:10;25.10;78.40
44695;DHT22;32845;59.422;17.930;2023-07-29T15:19:41;25.00;78.90
44695;DHT22;32845;59.422;17.930;2023-07-29T15:24:13;24.80;79.20
44695;DHT22;32845;59.422;17.930;2023-07-29T15:28:43;24.80;80.20
44695;DHT22;32845;59.422;17.930;2023-07-29T15:33:14;24.70;80.90
44695;DHT22;32845;59.422;17.930;2023-07-29T15:37:44;24.70;80.90
44695;DHT22;32845;59.422;17.930;2023-07-29T15:42:16;24.60;80.20
44695;DHT22;32845;59.422;17.930;2023-07-29T15:46:47;24.60;79.70
44695;DHT22;32845;59.422;17.930;2023-07-29T15:51:17;24.50;80.20
44695;DHT22;32845;59.422;17.930;2023-07-29T15:55:49;24.50;80.10
44695;DHT22;32845;59.422;17.930;2023-07-29T16:00:20;24.40;79.40
44695;DHT22;32845;59.422;17.930;2023-07-29T16:04:52;24.30;80.10
44695;DHT22;32845;59.422;17.930;2023-07-29T16:09:23;24.30;80.60
44695;DHT22;32845;59.422;17.930;2023-07-29T16:13:54;24.30;81.00
44695;DHT22;32845;59.422;17.930;2023-07-29T16:18:25;24.30;78.70
44695;DHT22;32845;59.422;17.930;2023-07-29T16:22:55;24.20;79.30
44695;DHT22;32845;59.422;17.930;2023-07-29T16:27:26;24.10;79.10
44695;DHT22;32845;59.422;17.930;2023-07-29T16:31:58;24.00;78.40
44695;DHT22;32845;59.422;17.930;2023-07-29T16:36:28;24.00;77.80
44695;DHT22;32845;59.422;17.930;2023-07-29T16:40:59;23.90;78.30
44695;DHT22;32845;59.422;17.930;2023-07-29T16:45:29;23.90;78.40
44695;DHT22;32845;59.422;17.930;2023-07-29T16:50:03;23.90;78.70
44695;DHT22;32845;59.422;17.930;2023-07-29T16:54:34;23.80;77.20
44695;DHT22;32845;59.422;17.930;2023-07-29T16:59:04;23.80;76.70
44695;DHT22;32845;59.422;17.930;2023-07-29T17:03:35;23.70;76.60
44695;DHT22;32845;59.422;17.930;2023-07-29T17:08:05;23.60;76.00
44695;DHT22;32845;59.422;17.930;2023-07-29T17:12:36;23.50;76.80
44695;DHT22;32845;59.422;17.930;2023-07-29T17:17:07;23.50;76.70
44695;DHT22;32845;59.422;17.930;2023-07-29T17:21:38;23.40;76.60
44695;DHT22;32845;59.422;17.930;2023-07-29T17:26:08;23.30;76.00
44695;DHT22;32845;59.422;17.930;2023-07-29T17:30:39;23.30;76.50
44695;DHT22;32845;59.422;17.930;2023-07-29T17:35:10;23.20;75.90
44695;DHT22;32845;59.422;17.930;2023-07-29T17:39:40;23.10;76.20
44695;DHT22;32845;59.422;17.930;2023-07-29T17:44:11;23.10;76.50
44695;DHT22;32845;59.422;17.930;2023-07-29T17:48:42;23.00;77.30
44695;DHT22;32845;59.422;17.930;2023-07-29T17:53:13;22.90;78.40
44695;DHT22;32845;59.422;17.930;2023-07-29T17:57:44;22.80;78.10
44695;DHT22;32845;59.422;17.930;2023-07-29T18:02:14;22.80;78.70
44695;DHT22;32845;59.422;17.930;2023-07-29T18:06:45;22.70;78.90
44695;DHT22;32845;59.422;17.930;2023-07-29T18:11:16;22.60;79.40
44695;DHT22;32845;59.422;17.930;2023-07-29T18:15:51;22.60;79.70
44695;DHT22;32845;59.422;17.930;2023-07-29T18:20:23;22.50;80.30
44695;DHT22;32845;59.422;17.930;2023-07-29T18:24:54;22.40;80.70
44695;DHT22;32845;59.422;17.930;2023-07-29T18:29:24;22.30;81.30
44695;DHT22;32845;59.422;17.930;2023-07-29T18:33:55;22.20;82.20
44695;DHT22;32845;59.422;17.930;2023-07-29T18:38:25;22.10;82.40
44695;DHT22;32845;59.422;17.930;2023-07-29T18:42:56;21.90;83.30
44695;DHT22;32845;59.422;17.930;2023-07-29T18:47:27;21.80;84.30
44695;DHT22;32845;59.422;17.930;2023-07-29T18:51:57;21.60;85.80
44695;DHT22;32845;59.422;17.930;2023-07-29T18:56:28;21.30;85.70
44695;DHT22;32845;59.422;17.930;2023-07-29T19:00:59;21.10;86.50
44695;DHT22;32845;59.422;17.930;2023-07-29T19:05:29;20.90;87.30
44695;DHT22;32845;59.422;17.930;2023-07-29T19:10:00;20.80;88.20
44695;DHT22;32845;59.422;17.930;2023-07-29T19:14:30;20.60;89.00
44695;DHT22;32845;59.422;17.930;2023-07-29T19:19:01;20.50;89.80
44695;DHT22;32845;59.422;17.930;2023-07-29T19:23:32;20.30;90.20
44695;DHT22;32845;59.422;17.930;2023-07-29T19:28:02;20.10;90.60
44695;DHT22;32845;59.422;17.930;2023-07-29T19:32:33;19.90;90.80
44695;DHT22;32845;59.422;17.930;2023-07-29T19:37:04;19.80;91.20
44695;DHT22;32845;59.422;17.930;2023-07-29T19:41:35;19.60;91.40
44695;DHT22;32845;59.422;17.930;2023-07-29T19:46:06;19.50;91.60
44695;DHT22;32845;59.422;17.930;2023-07-29T19:50:38;19.40;92.00
44695;DHT22;32845;59.422;17.930;2023-07-29T19:55:08;19.30;92.20
44695;DHT22;32845;59.422;17.930;2023-07-29T19:59:39;19.20;92.70
44695;DHT22;32845;59.422;17.930;2023-07-29T20:04:09;19.30;93.00
44695;DHT22;32845;59.422;17.930;2023-07-29T20:08:40;19.40;93.30
44695;DHT22;32845;59.422;17.930;2023-07-29T20:13:13;19.40;93.50
44695;DHT22;32845;59.422;17.930;2023-07-29T20:17:44;19.20;93.80
44695;DHT22;32845;59.422;17.930;2023-07-29T20:22:14;19.20;94.50
44695;DHT22;32845;59.422;17.930;2023-07-29T20:26:45;19.10;94.80
44695;DHT22;32845;59.422;17.930;2023-07-29T20:31:15;19.00;95.20
44695;DHT22;32845;59.422;17.930;2023-07-29T20:35:53;18.80;95.70
44695;DHT22;32845;59.422;17.930;2023-07-29T20:40:24;18.70;96.40
44695;DHT22;32845;59.422;17.930;2023-07-29T20:44:54;18.60;96.70
44695;DHT22;32845;59.422;17.930;2023-07-29T20:49:25;18.50;97.30
44695;DHT22;32845;59.422;17.930;2023-07-29T20:53:55;18.30;97.90
44695;DHT22;32845;59.422;17.930;2023-07-29T20:58:26;18.20;98.60
44695;DHT22;32845;59.422;17.930;2023-07-29T21:02:57;18.00;99.50
44695;DHT22;32845;59.422;17.930;2023-07-29T21:07:27;17.90;99.90
44695;DHT22;32845;59.422;17.930;2023-07-29T21:11:58;17.80;99.90
44695;DHT22;32845;59.422;17.930;2023-07-29T21:16:28;17.70;99.90
44695;DHT22;32845;59.422;17.930;2023-07-29T21:21:00;17.60;99.90
44695;DHT22;32845;59.422;17.930;2023-07-29T21:25:30;17.50;99.90
44695;DHT22;32845;59.422;17.930;2023-07-29T21:30:01;17.50;99.90
44695;DHT22;32845;59.422;17.930;2023-07-29T21:34:31;17.50;99.90
44695;DHT22;32845;59.422;17.930;2023-07-29T21:39:02;17.50;99.90
44695;DHT22;32845;59.422;17.930;2023-07-29T21:43:32;17.50;99.90
44695;DHT22;32845;59.422;17.930;2023-07-29T21:48:04;17.40;99.90
44695;DHT22;32845;59.422;17.930;2023-07-29T21:52:34;17.40;99.90
44695;DHT22;32845;59.422;17.930;2023-07-29T21:57:05;17.30;99.90
44695;DHT22;32845;59.422;17.930;2023-07-29T22:01:35;17.20;99.90
44695;DHT22;32845;59.422;17.930;2023-07-29T22:06:06;17.20;99.90
44695;DHT22;32845;59.422;17.930;2023-07-29T22:10:39;17.10;99.90
44695;DHT22;32845;59.422;17.930;2023-07-29T22:15:10;17.20;99.90
44695;DHT22;32845;59.422;17.930;2023-07-29T22:19:41;17.20;99.90
44695;DHT22;32845;59.422;17.930;2023-07-29T22:24:13;17.20;99.90
44695;DHT22;32845;59.422;17.930;2023-07-29T22:28:43;17.20;99.90
44695;DHT22;32845;59.422;17.930;2023-07-29T22:33:15;17.10;99.90
44695;DHT22;32845;59.422;17.930;2023-07-29T22:37:46;17.10;99.90
44695;DHT22;32845;59.422;17.930;2023-07-29T22:42:16;17.10;99.90
44695;DHT22;32845;59.422;17.930;2023-07-29T22:46:47;17.10;99.90
44695;DHT22;32845;59.422;17.930;2023-07-29T22:51:18;17.20;99.90
44695;DHT22;32845;59.422;17.930;2023-07-29T22:55:49;17.10;99.90
44695;DHT22;32845;59.422;17.930;2023-07-29T23:00:20;17.00;99.90
44695;DHT22;32845;59.422;17.930;2023-07-29T23:04:51;16.90;99.90
44695;DHT22;32845;59.422;17.930;2023-07-29T23:09:22;16.80;99.90
44695;DHT22;32845;59.422;17.930;2023-07-29T23:13:52;16.70;99.90
44695;DHT22;32845;59.422;17.930;2023-07-29T23:18:23;16.70;99.90
44695;DHT22;32845;59.422;17.930;2023-07-29T23:22:53;16.60;99.90
44695;DHT22;32845;59.422;17.930;2023-07-29T23:27:24;16.60;99.90
44695;DHT22;32845;59.422;17.930;2023-07-29T23:31:55;16.50;99.90
44695;DHT22;32845;59.422;17.930;2023-07-29T23:36:27;16.40;99.90
44695;DHT22;32845;59.422;17.930;2023-07-29T23:40:57;16.40;99.90
44695;DHT22;32845;59.422;17.930;2023-07-29T23:45:28;16.30;99.90
44695;DHT22;32845;59.422;17.930;2023-07-29T23:49:58;16.30;99.90
44695;DHT22;32845;59.422;17.930;2023-07-29T23:54:29;16.20;99.90
44695;DHT22;32845;59.422;17.930;2023-07-29T23:58:59;16.10;99.90
